Messwerte Brainerd

Temperatur

Temperatur
°C
1574132400 21.00 21.00 2
1574136000 22.00 22.00 2
1574139600 23.00 23.00 2
1574143200 0.00 0.00 1
1574146800 1.00 1.00 2
1574150400 2.00 2.00
1574154000 3.00 3.00 2
1574157600 4.00 4.00 2
1574161200 5.00 5.00 2
1574164800 6.00 6.00 2
1574168400 7.00 7.00 2
1574172000 8.00 8.00
1574175600 9.00 9.00 2
1574179200 10.00 10.00 4
1574182800 11.00 11.00 5
1574186400 12.00 12.00 6
1574190000 13.00 13.00 5
1574193600 14.00 14.00 5
1574197200 15.00 15.00 5
1574200800 16.00 16.00 5
1574204400 17.00 17.00 4
1574208000 18.00 18.00 3
1574211600 19.00 19.00 3
1574215200 20.00 20.00 3

Aktuellste Messwerte

Wettercharakter
Wetter: bedeckt
Temperatur
3 °C
Feuchtigkeit
85 %
Wind
5 km/hWindrichtung: West
Luftdruck
1014 hPa
Messzeit: 19. November 2019, 21.00Datenquelle: METAR

Weitere Messstationen in der Nähe

Messstation Temperatur Entfernung
Aitkin 2 °C 38 km
Pine River 1 °C 39 km
Staples 2 °C 52 km
Little Falls 2 °C 54 km
Longville 2 °C 65 km
Mc Gregor 2 °C 67 km
Wadena 2 °C 83 km

Wind

Windrichtung Böen Mittelwind
° km/h km/h
1574132400 21.00 20.00 - 21.00 170° 5
1574136000 22.00 21.00 - 22.00 170° 10
1574139600 23.00 22.00 - 23.00 180° 5
1574143200 0.00 23.00 - 0.00 160° 10
1574146800 1.00 0.00 - 1.00 180° 10
1574150400 2.00 1.00 - 2.00
1574154000 3.00 2.00 - 3.00 190° 5
1574157600 4.00 3.00 - 4.00 180° 0
1574161200 5.00 4.00 - 5.00 0
1574164800 6.00 5.00 - 6.00 0
1574168400 7.00 6.00 - 7.00 0
1574172000 8.00 7.00 - 8.00
1574175600 9.00 8.00 - 9.00 0
1574179200 10.00 9.00 - 10.00 290° 10
1574182800 11.00 10.00 - 11.00 280° 10
1574186400 12.00 11.00 - 12.00 310° 15
1574190000 13.00 12.00 - 13.00 280° 15
1574193600 14.00 13.00 - 14.00 290° 10
1574197200 15.00 14.00 - 15.00 290° 10
1574200800 16.00 15.00 - 16.00 310° 10
1574204400 17.00 16.00 - 17.00 300° 5
1574208000 18.00 17.00 - 18.00 0
1574211600 19.00 18.00 - 19.00 230° 5
1574215200 20.00 19.00 - 20.00 260° 10

Ihre Wetterstation

Fehlt Ihre Wetterstation auf unserem Portal?

Schreiben Sie an network@meteonews.ch

Klima

Wann ist es am wärmsten? Wann regnet es am wenigsten? Unsere Klimadaten geben Auskunft.